Time;durP1;ratioP1;P1;durP2;ratioP2;P2;SDS_P1;SDS_P2;PMS_P1;PMS_P2;Temp;Humidity;BMP_temperature;BMP_pressure;BME280_temperature;BME280_humidity;BME280_pressure;Samples;Min_cycle;Max_cycle;Signal;HPM_P1;HPM_P2
2023/06/07 00:00:13;;;;;;;3.17;2.87;;;24.00;49.80;;;;;;6185129;23;20156;-69
2023/06/07 00:02:38;;;;;;;2.97;2.67;;;24.00;49.80;;;;;;6185066;23;20159;-68
2023/06/07 00:05:05;;;;;;;3.33;3.03;;;24.00;49.80;;;;;;6184878;23;20423;-70
2023/06/07 00:07:32;;;;;;;3.00;2.70;;;24.00;50.30;;;;;;6184984;23;20147;-71
2023/06/07 00:09:58;;;;;;;3.17;2.87;;;24.00;49.80;;;;;;6184941;23;20863;-70
2023/06/07 00:12:23;;;;;;;3.23;2.67;;;24.00;49.80;;;;;;6184969;23;20423;-69
2023/06/07 00:14:49;;;;;;;2.77;2.57;;;24.00;49.80;;;;;;6184853;23;20165;-70
2023/06/07 00:17:15;;;;;;;3.20;2.90;;;24.00;49.80;;;;;;6184951;23;20218;-69
2023/06/07 00:19:41;;;;;;;2.77;2.53;;;24.00;49.80;;;;;;6184902;23;20143;-69
2023/06/07 00:22:08;;;;;;;2.97;2.67;;;24.00;49.80;;;;;;6184880;23;20428;-68
2023/06/07 00:24:34;;;;;;;3.00;2.70;;;24.00;49.80;;;;;;6184998;23;20611;-70
2023/06/07 00:26:59;;;;;;;3.30;2.87;;;24.00;49.80;;;;;;6184549;23;20481;-69
2023/06/07 00:29:25;;;;;;;5.43;3.00;;;24.00;49.80;;;;;;6184821;23;20148;-70
2023/06/07 00:31:50;;;;;;;3.07;2.87;;;24.00;49.80;;;;;;6184797;23;20156;-68
2023/06/07 00:34:16;;;;;;;3.03;2.60;;;24.00;49.80;;;;;;6183487;23;20171;-69
2023/06/07 00:36:42;;;;;;;3.57;2.97;;;24.00;49.80;;;;;;6184535;23;20179;-68
2023/06/07 00:39:07;;;;;;;2.73;2.53;;;24.00;49.80;;;;;;6158202;23;20159;-69
2023/06/07 00:41:33;;;;;;;3.43;3.13;;;24.00;49.80;;;;;;6184359;23;20502;-67
2023/06/07 00:44:01;;;;;;;2.90;2.63;;;24.00;49.80;;;;;;6184945;23;20176;-69
2023/06/07 00:46:30;;;;;;;2.93;2.73;;;24.00;49.80;;;;;;6184495;23;20653;-69
2023/06/07 00:48:57;;;;;;;2.83;2.63;;;24.00;49.80;;;;;;6184132;23;20830;-70
2023/06/07 00:51:23;;;;;;;3.73;3.43;;;24.00;49.80;;;;;;6183794;23;20394;-69
2023/06/07 00:53:51;;;;;;;3.43;3.13;;;24.00;49.80;;;;;;6184445;23;20418;-70
2023/06/07 00:56:17;;;;;;;4.50;3.27;;;24.00;49.80;;;;;;6184585;23;20395;-69
2023/06/07 00:58:45;;;;;;;2.73;2.53;;;24.00;49.80;;;;;;6184472;23;20714;-69
2023/06/07 01:01:11;;;;;;;2.70;2.50;;;24.00;49.80;;;;;;6158107;23;20876;-70
2023/06/07 01:03:37;;;;;;;3.27;2.57;;;24.00;49.80;;;;;;6184360;23;20386;-69
2023/06/07 01:06:03;;;;;;;2.90;2.70;;;24.00;49.80;;;;;;6184383;23;20550;-69
2023/06/07 01:08:30;;;;;;;3.07;2.77;;;24.00;49.80;;;;;;6184473;23;20865;-68
2023/06/07 01:10:58;;;;;;;3.00;2.80;;;24.00;49.80;;;;;;6184451;23;20373;-69
2023/06/07 01:13:25;;;;;;;3.30;3.00;;;24.00;49.80;;;;;;6184403;23;20422;-69
2023/06/07 01:15:51;;;;;;;3.40;3.10;;;24.00;49.80;;;;;;6184244;23;20395;-68
2023/06/07 01:18:17;;;;;;;3.03;2.50;;;24.00;49.80;;;;;;6184586;23;20371;-70
2023/06/07 01:20:49;;;;;;;2.90;2.70;;;24.00;49.80;;;;;;6184648;23;20179;-69
2023/06/07 01:23:16;;;;;;;3.20;2.90;;;24.00;49.80;;;;;;6157907;23;20471;-70
2023/06/07 01:25:43;;;;;;;3.60;3.30;;;24.00;49.80;;;;;;6184088;23;20509;-70
2023/06/07 01:28:09;;;;;;;3.30;3.00;;;24.00;49.80;;;;;;6184308;23;20422;-69
2023/06/07 01:30:35;;;;;;;3.10;2.90;;;24.00;49.80;;;;;;6184219;23;20826;-69
2023/06/07 01:33:04;;;;;;;3.23;2.93;;;24.00;49.80;;;;;;6184280;23;20834;-69
2023/06/07 01:35:32;;;;;;;2.90;2.60;;;24.00;49.80;;;;;;6184063;23;20434;-69
2023/06/07 01:37:58;;;;;;;3.53;3.13;;;24.00;49.80;;;;;;6184040;23;20382;-69
2023/06/07 01:40:25;;;;;;;3.33;3.03;;;24.00;50.00;;;;;;6184013;23;20521;-70
2023/06/07 01:42:52;;;;;;;4.13;3.23;;;24.00;49.80;;;;;;6184221;23;20379;-70
2023/06/07 01:45:18;;;;;;;3.40;3.10;;;24.00;49.80;;;;;;6184292;23;20422;-69
2023/06/07 01:47:44;;;;;;;3.33;3.03;;;24.00;49.80;;;;;;6184126;23;20425;-70
2023/06/07 01:50:10;;;;;;;2.60;2.40;;;24.00;49.80;;;;;;6184094;23;20379;-69
2023/06/07 01:52:36;;;;;;;4.23;2.87;;;24.00;49.80;;;;;;6184144;23;20375;-69
2023/06/07 01:55:03;;;;;;;2.87;2.57;;;24.00;49.80;;;;;;6184012;23;20174;-69
2023/06/07 01:57:51;;;;;;;3.17;2.87;;;24.00;49.80;;;;;;6183968;23;20542;-69
2023/06/07 02:00:33;;;;;;;2.60;2.40;;;24.00;49.80;;;;;;6184172;23;20819;-68
2023/06/07 02:03:06;;;;;;;3.23;2.93;;;24.00;49.80;;;;;;6184411;23;20691;-69
2023/06/07 02:05:35;;;;;;;3.00;2.80;;;24.00;49.80;;;;;;6184247;23;20514;-70
2023/06/07 02:08:19;;;;;;;3.07;2.80;;;24.00;49.80;;;;;;6184394;23;20383;-70
2023/06/07 02:10:46;;;;;;;4.10;3.10;;;24.00;49.80;;;;;;6184073;23;20438;-69
2023/06/07 02:13:12;;;;;;;2.50;2.30;;;24.00;49.80;;;;;;6183953;23;20373;-68
2023/06/07 02:15:38;;;;;;;3.03;2.70;;;24.00;49.80;;;;;;6183954;23;20395;-68
2023/06/07 02:18:04;;;;;;;3.10;2.80;;;24.00;49.80;;;;;;6184498;23;20378;-69
2023/06/07 02:20:33;;;;;;;3.60;2.80;;;24.00;49.80;;;;;;6184026;23;20223;-69
2023/06/07 02:22:59;;;;;;;3.23;2.93;;;24.00;49.80;;;;;;6184388;23;20159;-68
2023/06/07 02:25:25;;;;;;;3.07;2.77;;;24.00;49.80;;;;;;6183935;23;20547;-68
2023/06/07 02:27:51;;;;;;;3.20;2.90;;;24.00;49.80;;;;;;6183997;23;20148;-68
2023/06/07 02:30:17;;;;;;;3.43;3.13;;;24.00;49.80;;;;;;6183881;23;20854;-70
2023/06/07 02:32:49;;;;;;;2.97;2.73;;;24.00;49.80;;;;;;6183855;23;20371;-70
2023/06/07 02:35:17;;;;;;;3.27;3.03;;;24.00;49.80;;;;;;6183891;23;20481;-67
2023/06/07 02:37:45;;;;;;;3.47;3.03;;;24.00;49.80;;;;;;6183857;23;20429;-68
2023/06/07 02:40:11;;;;;;;2.83;2.63;;;24.00;49.80;;;;;;6183864;23;20379;-69
2023/06/07 02:42:38;;;;;;;3.53;3.33;;;24.00;49.80;;;;;;6183897;23;20371;-69
2023/06/07 02:45:04;;;;;;;3.50;3.20;;;24.00;49.90;;;;;;6183701;23;20399;-69
2023/06/07 02:47:30;;;;;;;3.90;3.50;;;24.00;49.80;;;;;;6183759;23;20873;-69
2023/06/07 02:49:57;;;;;;;3.00;2.80;;;24.00;49.80;;;;;;6184335;23;20379;-70
2023/06/07 02:52:22;;;;;;;3.10;2.80;;;23.90;49.70;;;;;;6185718;23;20379;-69
2023/06/07 02:54:48;;;;;;;3.37;3.07;;;23.90;49.70;;;;;;6185676;23;20394;-69
2023/06/07 02:57:14;;;;;;;2.40;2.20;;;23.90;49.80;;;;;;6185590;23;20167;-69
2023/06/07 02:59:40;;;;;;;2.70;2.50;;;23.90;49.80;;;;;;6185836;23;20275;-68
2023/06/07 03:02:06;;;;;;;2.57;2.37;;;23.90;49.70;;;;;;6184867;23;20186;-69
2023/06/07 03:04:32;;;;;;;3.43;3.10;;;23.90;49.80;;;;;;6159478;23;20735;-68
2023/06/07 03:06:58;;;;;;;5.27;2.90;;;23.90;49.80;;;;;;6185398;23;20501;-69
2023/06/07 03:09:24;;;;;;;3.87;3.50;;;23.90;49.70;;;;;;6184194;23;20414;-69
2023/06/07 03:11:50;;;;;;;2.80;2.60;;;23.90;49.70;;;;;;6183687;23;20406;-69
2023/06/07 03:14:19;;;;;;;2.47;2.27;;;24.00;49.80;;;;;;6183761;23;20394;-69
2023/06/07 03:16:45;;;;;;;2.70;2.50;;;24.00;49.70;;;;;;6185506;23;20159;-69
2023/06/07 03:19:12;;;;;;;2.73;2.53;;;24.00;49.70;;;;;;6185712;23;20375;-69
2023/06/07 03:21:38;;;;;;;3.47;3.17;;;24.00;49.70;;;;;;6185432;23;20426;-70
2023/06/07 03:24:04;;;;;;;3.03;2.80;;;24.00;49.80;;;;;;6185722;23;20788;-69
2023/06/07 03:26:31;;;;;;;3.30;3.00;;;24.00;49.70;;;;;;6158904;23;21061;-69
2023/06/07 03:28:56;;;;;;;3.27;2.97;;;24.00;49.70;;;;;;6185443;23;20729;-70
2023/06/07 03:31:23;;;;;;;3.67;3.37;;;24.00;49.80;;;;;;6185362;23;20370;-69
2023/06/07 03:33:48;;;;;;;3.23;2.93;;;24.00;49.80;;;;;;6185624;23;20151;-69
2023/06/07 03:36:17;;;;;;;3.00;2.43;;;24.00;49.80;;;;;;6185285;23;20877;-68
2023/06/07 03:38:42;;;;;;;3.10;2.60;;;24.00;49.80;;;;;;6185216;23;20218;-69
2023/06/07 03:41:08;;;;;;;3.40;3.10;;;24.00;49.80;;;;;;6185325;23;20379;-69
2023/06/07 03:43:34;;;;;;;3.20;2.90;;;24.00;49.70;;;;;;6185176;23;20152;-69
2023/06/07 03:45:59;;;;;;;3.20;2.70;;;24.10;49.80;;;;;;6185176;23;20626;-69
2023/06/07 03:48:25;;;;;;;3.13;2.83;;;24.00;49.70;;;;;;6185254;23;20155;-68
2023/06/07 03:50:50;;;;;;;3.00;2.70;;;24.00;49.70;;;;;;6158756;23;20211;-69
2023/06/07 03:53:16;;;;;;;3.13;2.80;;;24.10;49.80;;;;;;6185161;23;20148;-70
2023/06/07 03:55:42;;;;;;;2.77;2.37;;;24.10;49.80;;;;;;6185122;23;20227;-68
2023/06/07 03:58:08;;;;;;;4.07;3.40;;;24.10;49.80;;;;;;6185179;23;20160;-69
2023/06/07 04:00:34;;;;;;;3.27;2.87;;;24.10;49.70;;;;;;6185132;23;20239;-69
2023/06/07 04:03:00;;;;;;;5.23;2.63;;;24.10;49.80;;;;;;6184755;23;20774;-68
2023/06/07 04:05:26;;;;;;;3.37;3.00;;;24.10;49.80;;;;;;6184842;23;20184;-68
2023/06/07 04:07:53;;;;;;;3.20;2.97;;;24.10;49.80;;;;;;6184958;23;20867;-70
2023/06/07 04:10:19;;;;;;;2.67;2.40;;;24.10;49.80;;;;;;6185062;23;20379;-68
2023/06/07 04:12:45;;;;;;;2.90;2.70;;;24.10;49.80;;;;;;6184879;23;20366;-69
2023/06/07 04:15:10;;;;;;;2.87;2.67;;;24.10;49.80;;;;;;6184802;23;20242;-69
2023/06/07 04:17:36;;;;;;;4.10;3.13;;;24.10;49.80;;;;;;6184926;23;20414;-69
2023/06/07 04:20:03;;;;;;;2.63;2.43;;;24.10;49.80;;;;;;6184856;23;20144;-70
2023/06/07 04:22:30;;;;;;;2.67;2.47;;;24.10;49.80;;;;;;6184840;23;20143;-71
2023/06/07 04:24:57;;;;;;;2.43;2.23;;;24.10;49.80;;;;;;6184910;23;20387;-68
2023/06/07 04:27:23;;;;;;;2.60;2.40;;;24.10;49.80;;;;;;6184699;23;20382;-68
2023/06/07 04:29:53;;;;;;;3.20;2.80;;;24.20;49.90;;;;;;6184836;23;20382;-68
2023/06/07 04:32:19;;;;;;;3.73;2.63;;;24.20;49.90;;;;;;6184757;23;20382;-69
2023/06/07 04:34:46;;;;;;;2.93;2.73;;;24.20;49.90;;;;;;6158239;23;20395;-70
2023/06/07 04:37:12;;;;;;;2.50;2.30;;;24.20;50.00;;;;;;6184758;23;20170;-69
2023/06/07 04:39:40;;;;;;;2.70;2.50;;;24.20;49.90;;;;;;6184687;23;20714;-70
2023/06/07 04:42:07;;;;;;;2.57;2.37;;;24.20;49.90;;;;;;6184750;23;20383;-68
2023/06/07 04:44:33;;;;;;;2.93;2.30;;;24.20;49.90;;;;;;6184600;23;20914;-69
2023/06/07 04:47:02;;;;;;;3.00;2.70;;;24.30;50.00;;;;;;6184462;23;20415;-69
2023/06/07 04:49:28;;;;;;;2.93;2.63;;;24.30;49.90;;;;;;6158270;23;20547;-69
2023/06/07 04:51:55;;;;;;;2.63;2.43;;;24.30;49.90;;;;;;6158292;23;20383;-70
2023/06/07 04:54:20;;;;;;;2.33;2.13;;;24.30;49.90;;;;;;6184543;23;20175;-69
2023/06/07 04:56:46;;;;;;;3.67;2.70;;;24.30;49.90;;;;;;6184448;23;20399;-67
2023/06/07 04:59:12;;;;;;;2.63;2.43;;;24.30;49.90;;;;;;6184538;23;20575;-68
2023/06/07 05:01:38;;;;;;;2.47;2.27;;;24.30;49.90;;;;;;6184525;23;20198;-70
2023/06/07 05:04:04;;;;;;;2.60;2.40;;;24.30;49.90;;;;;;6184890;23;20727;-69
2023/06/07 05:06:31;;;;;;;2.73;2.53;;;24.30;49.90;;;;;;6184299;23;20183;-69
2023/06/07 05:08:56;;;;;;;3.20;2.90;;;24.30;49.90;;;;;;6184763;23;20155;-69
2023/06/07 05:11:22;;;;;;;3.07;2.67;;;24.40;50.00;;;;;;6184396;23;20486;-69
2023/06/07 05:13:47;;;;;;;2.73;2.53;;;24.40;50.50;;;;;;6183879;23;20147;-68
2023/06/07 05:16:17;;;;;;;3.47;2.73;;;24.40;49.90;;;;;;6184406;23;20212;-69
2023/06/07 05:18:46;;;;;;;2.53;2.33;;;24.40;49.90;;;;;;6184303;23;20187;-68
2023/06/07 05:21:15;;;;;;;2.10;1.90;;;24.40;49.90;;;;;;6157962;23;20387;-68
2023/06/07 05:23:41;;;;;;;3.40;2.90;;;24.40;49.90;;;;;;6184236;23;20375;-69
2023/06/07 05:26:07;;;;;;;2.80;2.50;;;24.40;49.90;;;;;;6184511;23;20778;-70
2023/06/07 05:28:34;;;;;;;2.50;2.30;;;24.40;49.90;;;;;;6184631;23;20375;-70
2023/06/07 05:31:01;;;;;;;3.23;2.50;;;24.40;49.90;;;;;;6184139;23;20383;-69
2023/06/07 05:33:28;;;;;;;3.10;2.80;;;24.40;49.80;;;;;;6184016;23;20381;-70
2023/06/07 05:35:54;;;;;;;3.13;2.83;;;24.40;49.90;;;;;;6184153;23;20406;-70
2023/06/07 05:38:20;;;;;;;2.60;2.40;;;24.40;49.80;;;;;;6184140;23;20390;-69
2023/06/07 05:40:46;;;;;;;3.00;2.80;;;24.40;49.80;;;;;;6184165;23;20437;-68
2023/06/07 05:43:11;;;;;;;3.60;3.00;;;24.40;49.90;;;;;;6184040;23;20493;-69
2023/06/07 05:45:37;;;;;;;2.50;2.30;;;24.40;49.80;;;;;;6183994;23;20210;-69
2023/06/07 05:48:03;;;;;;;3.00;2.47;;;24.40;49.80;;;;;;6184473;23;20655;-70
2023/06/07 05:50:29;;;;;;;2.90;2.70;;;24.40;49.80;;;;;;6184423;23;20156;-69
2023/06/07 05:52:58;;;;;;;3.20;2.90;;;24.40;49.80;;;;;;6157710;23;20442;-68
2023/06/07 05:55:25;;;;;;;3.40;2.27;;;24.40;49.80;;;;;;6184099;23;20795;-69
2023/06/07 05:57:51;;;;;;;3.33;3.03;;;24.40;49.80;;;;;;6184103;23;20374;-69
2023/06/07 06:00:17;;;;;;;3.80;3.50;;;24.40;49.80;;;;;;6184019;23;20371;-70
2023/06/07 06:02:45;;;;;;;3.20;2.90;;;24.40;49.80;;;;;;6183011;23;20390;-70
2023/06/07 06:05:17;;;;;;;4.53;3.13;;;24.40;49.80;;;;;;6183527;23;20415;-69
2023/06/07 06:07:43;;;;;;;3.70;3.40;;;24.40;49.80;;;;;;6184014;23;20359;-69
2023/06/07 06:10:10;;;;;;;3.60;3.30;;;24.40;49.80;;;;;;6183964;23;20461;-69
2023/06/07 06:12:35;;;;;;;2.90;2.70;;;24.50;49.90;;;;;;6184334;23;20155;-68
2023/06/07 06:15:01;;;;;;;3.77;3.47;;;24.40;49.80;;;;;;6183921;23;20423;-68
2023/06/07 06:17:27;;;;;;;4.03;3.63;;;24.40;49.80;;;;;;6183987;23;20163;-69
2023/06/07 06:19:53;;;;;;;4.80;4.40;;;24.40;49.80;;;;;;6183986;23;20144;-69
2023/06/07 06:22:18;;;;;;;5.37;3.97;;;24.40;49.80;;;;;;6184036;23;20155;-68
2023/06/07 06:24:44;;;;;;;5.10;3.70;;;24.40;49.80;;;;;;6184309;23;20167;-70
2023/06/07 06:27:11;;;;;;;8.70;4.00;;;24.40;49.80;;;;;;6185775;23;20187;-69
2023/06/07 06:29:37;;;;;;;4.27;3.87;;;24.40;49.80;;;;;;6184930;23;20534;-67
2023/06/07 06:32:03;;;;;;;3.50;3.20;;;24.40;49.90;;;;;;6185578;23;20397;-68
2023/06/07 06:34:30;;;;;;;3.60;3.30;;;24.40;49.80;;;;;;6183277;23;20399;-70
2023/06/07 06:36:57;;;;;;;3.90;3.60;;;24.40;49.90;;;;;;6158423;23;20414;-68
2023/06/07 06:39:23;;;;;;;4.70;4.03;;;24.40;50.40;;;;;;6184853;23;20375;-68
2023/06/07 06:41:49;;;;;;;5.40;4.90;;;24.40;50.20;;;;;;6185393;23;20876;-70
2023/06/07 06:44:15;;;;;;;4.23;3.83;;;24.40;49.90;;;;;;6183573;23;20473;-70
2023/06/07 06:46:40;;;;;;;4.87;4.43;;;24.40;50.00;;;;;;6183288;23;20653;-70
2023/06/07 06:49:06;;;;;;;5.20;4.10;;;24.40;50.00;;;;;;6183328;23;20161;-70
2023/06/07 06:51:31;;;;;;;4.30;3.90;;;24.40;50.00;;;;;;6183575;23;20158;-69
2023/06/07 06:53:57;;;;;;;4.60;4.20;;;24.40;50.10;;;;;;6183821;23;20172;-70
2023/06/07 06:56:23;;;;;;;5.60;5.10;;;24.40;50.10;;;;;;6184466;23;20172;-70
2023/06/07 06:58:48;;;;;;;7.07;3.97;;;24.40;50.10;;;;;;6185365;23;20183;-69
2023/06/07 07:01:15;;;;;;;5.20;4.70;;;24.40;50.20;;;;;;6184642;23;20155;-69
2023/06/07 07:03:41;;;;;;;4.77;4.37;;;24.40;50.20;;;;;;6184634;23;20160;-69
2023/06/07 07:06:10;;;;;;;5.47;4.70;;;24.40;50.20;;;;;;6183394;23;20928;-69
2023/06/07 07:08:36;;;;;;;4.57;4.17;;;24.40;50.20;;;;;;6183670;23;20788;-69
2023/06/07 07:11:02;;;;;;;4.30;3.97;;;24.50;50.30;;;;;;6184838;23;20374;-69
2023/06/07 07:13:28;;;;;;;4.43;4.07;;;24.40;50.30;;;;;;6185772;23;20416;-70
2023/06/07 07:15:54;;;;;;;5.40;4.90;;;24.50;50.40;;;;;;6183665;23;20446;-71
2023/06/07 07:18:20;;;;;;;5.43;4.93;;;24.40;50.30;;;;;;6184426;23;20657;-70
2023/06/07 07:20:45;;;;;;;6.20;5.20;;;24.50;50.40;;;;;;6185551;23;20151;-68
2023/06/07 07:23:12;;;;;;;4.80;4.40;;;24.50;50.40;;;;;;6185342;23;20494;-68
2023/06/07 07:25:38;;;;;;;5.40;4.97;;;24.50;50.40;;;;;;6185261;23;20190;-69
2023/06/07 07:28:04;;;;;;;4.90;4.50;;;24.50;50.50;;;;;;6185736;23;20862;-69
2023/06/07 07:30:29;;;;;;;5.70;5.10;;;24.50;50.40;;;;;;6185547;23;20378;-70
2023/06/07 07:32:56;;;;;;;5.30;4.70;;;24.50;50.50;;;;;;6185376;23;20534;-68
2023/06/07 07:35:22;;;;;;;20.67;6.73;;;24.50;50.50;;;;;;6184638;23;20178;-69
2023/06/07 07:37:49;;;;;;;4.90;4.40;;;24.50;50.50;;;;;;6184581;23;20382;-69
2023/06/07 07:40:14;;;;;;;4.90;4.50;;;24.50;50.50;;;;;;6183486;23;20426;-68
2023/06/07 07:42:40;;;;;;;6.53;5.47;;;24.50;50.50;;;;;;6184517;23;20371;-69
2023/06/07 07:45:06;;;;;;;4.67;4.27;;;24.50;50.50;;;;;;6185144;23;20311;-68
2023/06/07 07:47:33;;;;;;;5.40;4.90;;;24.50;50.50;;;;;;6185372;23;20264;-69
2023/06/07 07:49:59;;;;;;;4.30;3.90;;;24.50;50.50;;;;;;6185492;23;20683;-71
2023/06/07 07:52:24;;;;;;;5.50;4.63;;;24.50;50.40;;;;;;6185141;23;20398;-68
2023/06/07 07:54:50;;;;;;;5.27;4.80;;;24.50;50.40;;;;;;6185723;23;20395;-69
2023/06/07 07:57:16;;;;;;;4.53;4.17;;;24.50;50.40;;;;;;6185071;23;20672;-68
2023/06/07 07:59:41;;;;;;;5.03;4.63;;;24.60;50.50;;;;;;6185068;23;20193;-68
2023/06/07 08:02:07;;;;;;;4.90;4.50;;;24.50;50.40;;;;;;6185393;23;20175;-68
2023/06/07 08:04:32;;;;;;;5.40;4.90;;;24.60;50.50;;;;;;6184984;23;20167;-68
2023/06/07 08:06:58;;;;;;;5.00;4.50;;;24.60;50.50;;;;;;6185022;23;20611;-69
2023/06/07 08:09:24;;;;;;;5.50;5.00;;;24.60;50.50;;;;;;6184966;23;20174;-70
2023/06/07 08:11:49;;;;;;;4.53;4.13;;;24.60;50.50;;;;;;6185052;23;20151;-70
2023/06/07 08:14:15;;;;;;;4.93;4.43;;;24.60;50.50;;;;;;6184894;23;20597;-69
2023/06/07 08:16:41;;;;;;;5.20;4.70;;;24.60;50.50;;;;;;6184965;23;20163;-69
2023/06/07 08:19:07;;;;;;;5.20;4.47;;;24.60;50.50;;;;;;6158544;23;20379;-68
2023/06/07 08:21:33;;;;;;;4.67;4.27;;;24.60;50.60;;;;;;6184729;23;20203;-70
2023/06/07 08:23:59;;;;;;;6.00;5.50;;;24.60;50.60;;;;;;6184785;23;20187;-68
2023/06/07 08:26:25;;;;;;;5.10;4.70;;;24.60;50.60;;;;;;6184782;23;20456;-68
2023/06/07 08:28:51;;;;;;;5.63;4.10;;;24.60;50.50;;;;;;6184787;23;20846;-68
2023/06/07 08:31:22;;;;;;;4.90;4.40;;;24.60;50.60;;;;;;6184806;23;20144;-69
2023/06/07 08:33:47;;;;;;;5.30;4.80;;;24.60;50.60;;;;;;6184634;23;20136;-69
2023/06/07 08:36:15;;;;;;;9.43;4.73;;;24.60;50.60;;;;;;6184877;23;20375;-67
2023/06/07 08:38:43;;;;;;;5.47;4.27;;;24.60;50.60;;;;;;6184685;23;20158;-69
2023/06/07 08:41:10;;;;;;;6.53;4.67;;;24.60;50.60;;;;;;6184587;23;20375;-69
2023/06/07 08:43:37;;;;;;;5.20;4.63;;;24.60;50.60;;;;;;6184601;23;20880;-69
2023/06/07 08:46:05;;;;;;;7.80;4.47;;;24.60;50.60;;;;;;6184533;23;20419;-70
2023/06/07 08:48:35;;;;;;;5.97;4.70;;;24.60;50.60;;;;;;6184410;23;20421;-69
2023/06/07 08:51:02;;;;;;;5.20;4.10;;;24.60;50.60;;;;;;6184597;23;20379;-69
2023/06/07 08:53:45;;;;;;;7.30;4.20;;;24.60;50.60;;;;;;6184595;23;20375;-70
2023/06/07 08:56:12;;;;;;;7.17;4.53;;;24.60;50.60;;;;;;6184360;23;20866;-68
2023/06/07 08:58:38;;;;;;;4.93;4.50;;;24.60;50.60;;;;;;6184547;23;20382;-66
2023/06/07 09:01:04;;;;;;;5.07;4.03;;;24.70;50.70;;;;;;6184544;23;20379;-69
2023/06/07 09:03:29;;;;;;;6.13;4.67;;;24.70;50.70;;;;;;6184821;23;20750;-69
2023/06/07 09:05:56;;;;;;;6.37;5.07;;;24.70;50.70;;;;;;6157911;23;20215;-67
2023/06/07 09:08:21;;;;;;;4.83;4.33;;;24.70;50.70;;;;;;6184419;23;20143;-67
2023/06/07 09:10:47;;;;;;;4.43;4.03;;;24.70;50.70;;;;;;6184334;23;20371;-67
2023/06/07 09:13:19;;;;;;;5.67;4.40;;;24.70;50.70;;;;;;6184379;23;20148;-68
2023/06/07 09:15:48;;;;;;;5.60;4.17;;;24.70;50.70;;;;;;6184402;23;20176;-68
2023/06/07 09:18:14;;;;;;;10.37;4.10;;;24.70;50.70;;;;;;6184632;23;20367;-68
2023/06/07 09:20:40;;;;;;;6.60;4.80;;;24.70;50.70;;;;;;6184297;23;20389;-67
2023/06/07 09:23:16;;;;;;;6.57;4.00;;;24.70;50.70;;;;;;6184290;23;20155;-67
2023/06/07 09:25:45;;;;;;;5.23;4.57;;;24.70;50.70;;;;;;6184160;23;20258;-67
2023/06/07 09:28:13;;;;;;;5.53;4.43;;;24.70;50.70;;;;;;6184161;23;20378;-68
2023/06/07 09:30:56;;;;;;;6.07;4.43;;;24.70;50.70;;;;;;6183202;23;20376;-67
2023/06/07 09:33:28;;;;;;;8.20;4.57;;;24.70;50.70;;;;;;6184168;23;20492;-68
2023/06/07 09:36:20;;;;;;;4.40;4.00;;;24.70;50.70;;;;;;6184024;23;20398;-67
2023/06/07 09:38:46;;;;;;;4.57;4.03;;;24.70;50.80;;;;;;6179923;23;20391;-68
2023/06/07 09:41:13;;;;;;;4.27;3.87;;;24.70;50.70;;;;;;6184059;23;20454;-69
2023/06/07 09:43:50;;;;;;;4.43;4.03;;;24.70;50.70;;;;;;6183981;23;20147;-69
2023/06/07 09:46:19;;;;;;;4.27;3.87;;;24.70;50.70;;;;;;6184012;23;20944;-68
2023/06/07 09:48:52;;;;;;;5.00;4.10;;;24.70;50.80;;;;;;6184147;23;20759;-69
2023/06/07 09:51:19;;;;;;;4.97;4.50;;;24.80;50.80;;;;;;6184050;23;20382;-68
2023/06/07 09:54:01;;;;;;;5.07;4.57;;;24.70;50.80;;;;;;6184030;23;20367;-68
2023/06/07 09:56:27;;;;;;;4.97;3.97;;;24.80;50.90;;;;;;6184393;23;20469;-68
2023/06/07 09:59:12;;;;;;;4.70;4.30;;;24.80;50.80;;;;;;6183860;23;20467;-69
2023/06/07 10:01:43;;;;;;;4.77;4.37;;;24.80;50.80;;;;;;6183598;23;20375;-69
2023/06/07 10:04:10;;;;;;;6.00;4.53;;;24.80;50.90;;;;;;6184230;23;20913;-67
2023/06/07 10:06:41;;;;;;;7.43;4.40;;;24.80;50.90;;;;;;6183932;23;20497;-69
2023/06/07 10:09:07;;;;;;;5.97;5.10;;;24.80;50.80;;;;;;6183973;23;20390;-68
2023/06/07 10:11:36;;;;;;;5.23;4.73;;;24.80;50.90;;;;;;6183932;23;20446;-67
2023/06/07 10:14:09;;;;;;;6.60;4.50;;;24.80;50.90;;;;;;6183929;23;20426;-65
2023/06/07 10:16:38;;;;;;;5.40;4.60;;;24.80;50.90;;;;;;6184319;23;20359;-66
2023/06/07 10:19:13;;;;;;;6.30;4.07;;;24.80;50.90;;;;;;6182252;23;20454;-67
2023/06/07 10:21:42;;;;;;;4.73;4.20;;;24.80;50.90;;;;;;6183753;23;20434;-66
2023/06/07 10:24:12;;;;;;;5.07;4.57;;;24.80;50.90;;;;;;6183925;23;20391;-68
2023/06/07 10:26:57;;;;;;;5.93;4.87;;;24.80;50.90;;;;;;6183798;23;20446;-67
2023/06/07 10:29:38;;;;;;;5.03;4.53;;;24.80;50.90;;;;;;6183995;23;20447;-67
2023/06/07 10:32:12;;;;;;;5.30;4.80;;;24.80;50.90;;;;;;6183957;23;20409;-66
2023/06/07 10:34:38;;;;;;;4.93;4.53;;;24.80;50.90;;;;;;6183859;23;20470;-67
2023/06/07 10:37:07;;;;;;;4.97;4.57;;;24.80;50.90;;;;;;6182391;23;20495;-70
2023/06/07 10:39:38;;;;;;;5.37;4.60;;;24.80;50.90;;;;;;6183736;23;20379;-65
2023/06/07 10:42:05;;;;;;;5.27;4.40;;;24.80;50.90;;;;;;6182968;23;20355;-66
2023/06/07 10:44:31;;;;;;;6.27;4.50;;;24.80;50.90;;;;;;6183600;23;20949;-65
2023/06/07 10:47:21;;;;;;;6.40;4.40;;;24.80;50.90;;;;;;6182411;23;20414;-65
2023/06/07 10:49:47;;;;;;;4.80;4.40;;;24.80;50.90;;;;;;6183293;23;20398;-67
2023/06/07 10:52:15;;;;;;;5.70;5.03;;;24.80;50.90;;;;;;6183782;23;20367;-68
2023/06/07 10:54:42;;;;;;;4.57;4.17;;;24.80;51.10;;;;;;6183985;23;20394;-67
2023/06/07 10:57:08;;;;;;;4.80;4.40;;;24.80;50.90;;;;;;6183654;23;20482;-67
2023/06/07 10:59:35;;;;;;;5.23;4.73;;;24.80;50.90;;;;;;6183768;23;20435;-67
2023/06/07 11:02:21;;;;;;;5.23;4.73;;;24.80;50.90;;;;;;6183728;23;20849;-68
2023/06/07 11:04:57;;;;;;;7.80;5.43;;;24.90;51.00;;;;;;6157211;23;20494;-67
2023/06/07 11:07:28;;;;;;;5.90;5.30;;;24.80;51.00;;;;;;6183690;23;20464;-69
2023/06/07 11:10:00;;;;;;;5.57;5.07;;;24.80;51.00;;;;;;6183644;23;20379;-69
2023/06/07 11:12:35;;;;;;;5.50;5.00;;;24.90;51.10;;;;;;6185349;23;20469;-67
2023/06/07 11:15:25;;;;;;;4.70;4.30;;;24.90;51.00;;;;;;6158947;23;20607;-68
2023/06/07 11:17:52;;;;;;;5.40;4.90;;;24.90;51.10;;;;;;6185530;23;20414;-69
2023/06/07 11:20:36;;;;;;;5.63;5.13;;;24.80;51.00;;;;;;6159094;23;20383;-69
2023/06/07 11:23:23;;;;;;;5.30;4.80;;;24.90;51.10;;;;;;6183090;23;20686;-66
2023/06/07 11:25:51;;;;;;;7.37;5.80;;;24.90;51.10;;;;;;6185304;23;20782;-65
2023/06/07 11:28:28;;;;;;;5.40;4.10;;;24.90;51.10;;;;;;6185269;23;20379;-67
2023/06/07 11:30:55;;;;;;;5.57;5.07;;;24.90;51.10;;;;;;6185719;23;20697;-66
2023/06/07 11:33:23;;;;;;;5.30;4.87;;;24.90;51.10;;;;;;6185261;23;20374;-66
2023/06/07 11:35:50;;;;;;;6.10;4.67;;;24.90;51.10;;;;;;6185484;23;20403;-67
2023/06/07 11:38:16;;;;;;;5.47;4.97;;;24.90;51.00;;;;;;6158906;23;20395;-68
2023/06/07 11:40:43;;;;;;;6.03;5.43;;;24.90;51.00;;;;;;6185671;23;20421;-68
2023/06/07 11:43:11;;;;;;;4.80;4.40;;;24.90;51.00;;;;;;6185686;23;20615;-68
2023/06/07 11:45:39;;;;;;;5.67;5.17;;;24.90;51.00;;;;;;6185224;23;20427;-68
2023/06/07 11:48:05;;;;;;;6.13;5.60;;;24.90;51.00;;;;;;6185440;23;20375;-68
2023/06/07 11:50:31;;;;;;;5.87;5.33;;;24.90;51.00;;;;;;6185210;23;20458;-67
2023/06/07 11:52:57;;;;;;;5.57;5.10;;;24.90;51.00;;;;;;6185528;23;20406;-67
2023/06/07 11:55:24;;;;;;;6.60;5.83;;;24.90;51.00;;;;;;6185218;23;20164;-66
2023/06/07 11:57:53;;;;;;;6.10;5.50;;;24.90;51.00;;;;;;6185219;23;20215;-65
2023/06/07 12:00:23;;;;;;;8.30;6.77;;;24.90;51.00;;;;;;6185103;23;20371;-68
2023/06/07 12:02:50;;;;;;;8.93;6.27;;;24.90;51.00;;;;;;6185092;23;20375;-68
2023/06/07 12:05:17;;;;;;;7.90;6.70;;;24.90;51.00;;;;;;6184863;23;20394;-69
2023/06/07 12:07:43;;;;;;;10.50;6.53;;;24.90;51.00;;;;;;6185318;23;20722;-68
2023/06/07 12:10:09;;;;;;;10.63;7.53;;;24.90;51.00;;;;;;6184883;23;20371;-69
2023/06/07 12:12:35;;;;;;;8.00;7.07;;;24.90;51.00;;;;;;6184700;23;20159;-68
2023/06/07 12:15:03;;;;;;;8.97;8.07;;;24.90;51.00;;;;;;6184941;23;20483;-68
2023/06/07 12:17:40;;;;;;;9.63;8.50;;;24.90;51.00;;;;;;6184928;23;20375;-68
2023/06/07 12:20:11;;;;;;;9.33;7.07;;;24.90;51.00;;;;;;6184933;23;20680;-68
2023/06/07 12:22:37;;;;;;;11.30;8.10;;;24.90;51.00;;;;;;6184792;23;20894;-68
2023/06/07 12:25:10;;;;;;;9.10;7.50;;;24.90;51.00;;;;;;6184859;23;20398;-69
2023/06/07 12:27:37;;;;;;;8.77;7.87;;;24.90;51.00;;;;;;6185219;23;20497;-68
2023/06/07 12:30:08;;;;;;;8.37;7.57;;;24.90;51.00;;;;;;6183645;23;20383;-70
2023/06/07 12:32:34;;;;;;;8.77;6.80;;;24.90;51.00;;;;;;6185192;23;20716;-68
2023/06/07 12:35:05;;;;;;;8.03;7.00;;;24.90;51.00;;;;;;6184687;23;20397;-68
2023/06/07 12:37:35;;;;;;;9.13;7.53;;;24.90;51.00;;;;;;6184756;23;20218;-67
2023/06/07 12:40:05;;;;;;;8.53;6.63;;;24.90;51.00;;;;;;6184493;23;20367;-68
2023/06/07 12:42:32;;;;;;;10.67;7.13;;;24.90;51.00;;;;;;6184595;23;20356;-69
2023/06/07 12:44:58;;;;;;;11.03;8.07;;;24.90;51.00;;;;;;6184289;23;20402;-67
2023/06/07 12:47:24;;;;;;;11.20;7.43;;;24.90;51.10;;;;;;6184635;23;20890;-68